sensor_id;sensor_type;location;lat;lon;timestamp;P1;durP1;ratioP1;P2;durP2;ratioP2
4023;SDS011;2026;51.002;13.668;2023-05-02T00:02:40;13.13;;;9.87;;
4023;SDS011;2026;51.002;13.668;2023-05-02T00:07:43;14.37;;;10.60;;
4023;SDS011;2026;51.002;13.668;2023-05-02T00:12:48;11.53;;;9.30;;
4023;SDS011;2026;51.002;13.668;2023-05-02T00:17:51;12.60;;;10.30;;
4023;SDS011;2026;51.002;13.668;2023-05-02T00:22:54;13.80;;;11.10;;
4023;SDS011;2026;51.002;13.668;2023-05-02T00:27:58;17.23;;;10.40;;
4023;SDS011;2026;51.002;13.668;2023-05-02T00:33:01;14.43;;;10.80;;
4023;SDS011;2026;51.002;13.668;2023-05-02T00:38:07;12.70;;;10.33;;
4023;SDS011;2026;51.002;13.668;2023-05-02T00:43:12;13.67;;;10.40;;
4023;SDS011;2026;51.002;13.668;2023-05-02T00:48:15;17.10;;;10.23;;
4023;SDS011;2026;51.002;13.668;2023-05-02T00:53:20;13.30;;;9.53;;
4023;SDS011;2026;51.002;13.668;2023-05-02T00:58:25;13.47;;;10.60;;
4023;SDS011;2026;51.002;13.668;2023-05-02T01:03:31;14.63;;;9.80;;
4023;SDS011;2026;51.002;13.668;2023-05-02T01:08:43;11.77;;;9.90;;
4023;SDS011;2026;51.002;13.668;2023-05-02T01:13:53;9.73;;;8.73;;
4023;SDS011;2026;51.002;13.668;2023-05-02T01:18:58;17.53;;;10.30;;
4023;SDS011;2026;51.002;13.668;2023-05-02T01:24:04;13.87;;;9.53;;
4023;SDS011;2026;51.002;13.668;2023-05-02T01:29:13;12.90;;;9.20;;
4023;SDS011;2026;51.002;13.668;2023-05-02T01:34:19;11.97;;;9.43;;
4023;SDS011;2026;51.002;13.668;2023-05-02T01:39:23;10.97;;;9.10;;
4023;SDS011;2026;51.002;13.668;2023-05-02T01:44:29;10.40;;;9.30;;
4023;SDS011;2026;51.002;13.668;2023-05-02T01:49:34;10.80;;;9.03;;
4023;SDS011;2026;51.002;13.668;2023-05-02T01:54:39;12.90;;;9.50;;
4023;SDS011;2026;51.002;13.668;2023-05-02T01:59:44;12.93;;;8.97;;
4023;SDS011;2026;51.002;13.668;2023-05-02T02:04:49;11.07;;;9.43;;
4023;SDS011;2026;51.002;13.668;2023-05-02T02:09:54;12.40;;;9.20;;
4023;SDS011;2026;51.002;13.668;2023-05-02T02:14:59;11.07;;;8.80;;
4023;SDS011;2026;51.002;13.668;2023-05-02T02:20:05;10.87;;;9.00;;
4023;SDS011;2026;51.002;13.668;2023-05-02T02:25:13;9.90;;;8.37;;
4023;SDS011;2026;51.002;13.668;2023-05-02T02:30:18;11.10;;;8.87;;
4023;SDS011;2026;51.002;13.668;2023-05-02T02:35:21;11.90;;;9.30;;
4023;SDS011;2026;51.002;13.668;2023-05-02T02:40:26;11.10;;;8.73;;
4023;SDS011;2026;51.002;13.668;2023-05-02T02:45:34;13.83;;;8.43;;
4023;SDS011;2026;51.002;13.668;2023-05-02T02:50:42;15.03;;;8.97;;
4023;SDS011;2026;51.002;13.668;2023-05-02T02:55:55;9.33;;;7.70;;
4023;SDS011;2026;51.002;13.668;2023-05-02T03:01:04;13.00;;;8.47;;
4023;SDS011;2026;51.002;13.668;2023-05-02T03:06:12;10.63;;;8.77;;
4023;SDS011;2026;51.002;13.668;2023-05-02T03:11:16;10.10;;;8.60;;
4023;SDS011;2026;51.002;13.668;2023-05-02T03:16:36;12.90;;;8.60;;
4023;SDS011;2026;51.002;13.668;2023-05-02T03:21:44;10.20;;;7.67;;
4023;SDS011;2026;51.002;13.668;2023-05-02T03:26:53;12.30;;;8.37;;
4023;SDS011;2026;51.002;13.668;2023-05-02T03:32:02;9.67;;;8.07;;
4023;SDS011;2026;51.002;13.668;2023-05-02T03:37:06;8.90;;;7.90;;
4023;SDS011;2026;51.002;13.668;2023-05-02T03:42:09;9.87;;;8.13;;
4023;SDS011;2026;51.002;13.668;2023-05-02T03:47:14;10.13;;;7.80;;
4023;SDS011;2026;51.002;13.668;2023-05-02T03:52:17;9.00;;;7.67;;
4023;SDS011;2026;51.002;13.668;2023-05-02T03:57:22;10.17;;;8.37;;
4023;SDS011;2026;51.002;13.668;2023-05-02T04:02:26;8.47;;;7.30;;
4023;SDS011;2026;51.002;13.668;2023-05-02T04:07:31;10.10;;;7.93;;
4023;SDS011;2026;51.002;13.668;2023-05-02T04:12:37;9.63;;;7.50;;
4023;SDS011;2026;51.002;13.668;2023-05-02T04:17:42;12.40;;;7.70;;
4023;SDS011;2026;51.002;13.668;2023-05-02T04:22:46;11.03;;;7.90;;
4023;SDS011;2026;51.002;13.668;2023-05-02T04:27:50;9.30;;;7.83;;
4023;SDS011;2026;51.002;13.668;2023-05-02T04:32:58;8.83;;;7.23;;
4023;SDS011;2026;51.002;13.668;2023-05-02T04:38:05;10.70;;;7.33;;
4023;SDS011;2026;51.002;13.668;2023-05-02T04:43:11;11.27;;;7.87;;
4023;SDS011;2026;51.002;13.668;2023-05-02T04:48:24;10.10;;;8.23;;
4023;SDS011;2026;51.002;13.668;2023-05-02T04:53:27;10.23;;;7.63;;
4023;SDS011;2026;51.002;13.668;2023-05-02T04:58:30;9.03;;;7.97;;
4023;SDS011;2026;51.002;13.668;2023-05-02T05:03:39;9.83;;;8.33;;
4023;SDS011;2026;51.002;13.668;2023-05-02T05:08:43;9.47;;;7.30;;
4023;SDS011;2026;51.002;13.668;2023-05-02T05:13:48;9.90;;;7.80;;
4023;SDS011;2026;51.002;13.668;2023-05-02T05:18:53;9.30;;;8.03;;
4023;SDS011;2026;51.002;13.668;2023-05-02T05:23:57;11.77;;;8.10;;
4023;SDS011;2026;51.002;13.668;2023-05-02T05:29:02;10.10;;;7.43;;
4023;SDS011;2026;51.002;13.668;2023-05-02T05:34:13;11.23;;;7.27;;
4023;SDS011;2026;51.002;13.668;2023-05-02T05:39:18;11.27;;;7.43;;
4023;SDS011;2026;51.002;13.668;2023-05-02T05:44:23;9.57;;;7.40;;
4023;SDS011;2026;51.002;13.668;2023-05-02T05:49:28;9.70;;;7.50;;
4023;SDS011;2026;51.002;13.668;2023-05-02T05:54:31;10.80;;;7.50;;
4023;SDS011;2026;51.002;13.668;2023-05-02T05:59:34;9.23;;;6.87;;
4023;SDS011;2026;51.002;13.668;2023-05-02T06:04:40;8.90;;;6.80;;
4023;SDS011;2026;51.002;13.668;2023-05-02T06:09:44;7.60;;;6.80;;
4023;SDS011;2026;51.002;13.668;2023-05-02T06:14:49;13.07;;;6.50;;
4023;SDS011;2026;51.002;13.668;2023-05-02T06:19:53;9.53;;;6.40;;
4023;SDS011;2026;51.002;13.668;2023-05-02T06:24:56;8.63;;;7.13;;
4023;SDS011;2026;51.002;13.668;2023-05-02T06:30:00;7.43;;;6.43;;
4023;SDS011;2026;51.002;13.668;2023-05-02T06:35:05;11.50;;;6.83;;
4023;SDS011;2026;51.002;13.668;2023-05-02T06:40:09;8.53;;;5.97;;
4023;SDS011;2026;51.002;13.668;2023-05-02T06:45:13;6.73;;;5.97;;
4023;SDS011;2026;51.002;13.668;2023-05-02T06:50:18;8.90;;;6.40;;
4023;SDS011;2026;51.002;13.668;2023-05-02T06:55:21;9.63;;;6.93;;
4023;SDS011;2026;51.002;13.668;2023-05-02T07:00:24;7.77;;;6.17;;
4023;SDS011;2026;51.002;13.668;2023-05-02T07:05:29;9.43;;;6.73;;
4023;SDS011;2026;51.002;13.668;2023-05-02T07:10:32;8.40;;;6.37;;
4023;SDS011;2026;51.002;13.668;2023-05-02T07:15:35;7.97;;;5.57;;
4023;SDS011;2026;51.002;13.668;2023-05-02T07:20:39;8.50;;;6.47;;
4023;SDS011;2026;51.002;13.668;2023-05-02T07:25:42;9.17;;;6.87;;
4023;SDS011;2026;51.002;13.668;2023-05-02T07:30:45;7.23;;;6.40;;
4023;SDS011;2026;51.002;13.668;2023-05-02T07:35:50;9.77;;;6.80;;
4023;SDS011;2026;51.002;13.668;2023-05-02T07:40:55;10.63;;;6.57;;
4023;SDS011;2026;51.002;13.668;2023-05-02T07:46:02;8.77;;;6.10;;
4023;SDS011;2026;51.002;13.668;2023-05-02T07:51:07;8.00;;;6.47;;
4023;SDS011;2026;51.002;13.668;2023-05-02T07:56:11;11.33;;;6.83;;
4023;SDS011;2026;51.002;13.668;2023-05-02T08:01:14;9.13;;;6.40;;
4023;SDS011;2026;51.002;13.668;2023-05-02T08:06:20;9.80;;;6.80;;
4023;SDS011;2026;51.002;13.668;2023-05-02T08:11:23;9.50;;;6.50;;
4023;SDS011;2026;51.002;13.668;2023-05-02T08:16:29;8.53;;;6.10;;
4023;SDS011;2026;51.002;13.668;2023-05-02T08:21:34;10.20;;;7.00;;
4023;SDS011;2026;51.002;13.668;2023-05-02T08:26:37;18.83;;;7.00;;
4023;SDS011;2026;51.002;13.668;2023-05-02T08:31:39;10.03;;;7.77;;
4023;SDS011;2026;51.002;13.668;2023-05-02T08:36:44;10.70;;;7.33;;
4023;SDS011;2026;51.002;13.668;2023-05-02T08:41:48;11.30;;;7.30;;
4023;SDS011;2026;51.002;13.668;2023-05-02T08:46:53;8.73;;;6.50;;
4023;SDS011;2026;51.002;13.668;2023-05-02T08:51:59;8.50;;;6.30;;
4023;SDS011;2026;51.002;13.668;2023-05-02T08:57:03;9.00;;;6.13;;
4023;SDS011;2026;51.002;13.668;2023-05-02T09:02:09;7.80;;;6.27;;
4023;SDS011;2026;51.002;13.668;2023-05-02T09:07:20;10.47;;;6.80;;
4023;SDS011;2026;51.002;13.668;2023-05-02T09:12:24;8.57;;;5.87;;
4023;SDS011;2026;51.002;13.668;2023-05-02T09:17:37;8.27;;;5.97;;
4023;SDS011;2026;51.002;13.668;2023-05-02T09:22:48;8.30;;;6.17;;
4023;SDS011;2026;51.002;13.668;2023-05-02T09:27:52;7.27;;;6.03;;
4023;SDS011;2026;51.002;13.668;2023-05-02T09:32:56;8.20;;;6.60;;
4023;SDS011;2026;51.002;13.668;2023-05-02T09:38:00;11.83;;;7.77;;
4023;SDS011;2026;51.002;13.668;2023-05-02T09:43:12;18.40;;;8.77;;
4023;SDS011;2026;51.002;13.668;2023-05-02T09:48:17;12.50;;;9.50;;
4023;SDS011;2026;51.002;13.668;2023-05-02T09:53:21;13.67;;;10.23;;
4023;SDS011;2026;51.002;13.668;2023-05-02T09:58:26;14.43;;;10.13;;
4023;SDS011;2026;51.002;13.668;2023-05-02T10:03:31;15.60;;;10.63;;
4023;SDS011;2026;51.002;13.668;2023-05-02T10:08:40;13.77;;;10.10;;
4023;SDS011;2026;51.002;13.668;2023-05-02T10:13:44;10.73;;;9.37;;
4023;SDS011;2026;51.002;13.668;2023-05-02T10:18:51;14.53;;;10.57;;
4023;SDS011;2026;51.002;13.668;2023-05-02T10:24:01;13.63;;;10.73;;
4023;SDS011;2026;51.002;13.668;2023-05-02T10:29:05;14.43;;;9.80;;
4023;SDS011;2026;51.002;13.668;2023-05-02T10:34:08;18.07;;;11.13;;
4023;SDS011;2026;51.002;13.668;2023-05-02T10:39:15;13.60;;;9.93;;
4023;SDS011;2026;51.002;13.668;2023-05-02T10:44:30;13.40;;;10.77;;
4023;SDS011;2026;51.002;13.668;2023-05-02T10:49:34;13.67;;;11.30;;
4023;SDS011;2026;51.002;13.668;2023-05-02T10:54:54;18.33;;;11.20;;
4023;SDS011;2026;51.002;13.668;2023-05-02T11:00:22;14.50;;;10.97;;
4023;SDS011;2026;51.002;13.668;2023-05-02T11:05:26;15.67;;;11.23;;
4023;SDS011;2026;51.002;13.668;2023-05-02T11:10:31;17.20;;;11.60;;
4023;SDS011;2026;51.002;13.668;2023-05-02T11:26:29;19.80;;;10.83;;
4023;SDS011;2026;51.002;13.668;2023-05-02T11:37:09;14.00;;;10.13;;
4023;SDS011;2026;51.002;13.668;2023-05-02T11:47:32;13.97;;;11.40;;
4023;SDS011;2026;51.002;13.668;2023-05-02T11:52:35;15.70;;;12.10;;
4023;SDS011;2026;51.002;13.668;2023-05-02T11:57:41;17.67;;;11.93;;
4023;SDS011;2026;51.002;13.668;2023-05-02T12:02:45;14.77;;;10.90;;
4023;SDS011;2026;51.002;13.668;2023-05-02T12:07:49;15.93;;;10.40;;
4023;SDS011;2026;51.002;13.668;2023-05-02T12:13:02;11.97;;;9.70;;
4023;SDS011;2026;51.002;13.668;2023-05-02T12:18:06;12.67;;;9.77;;
4023;SDS011;2026;51.002;13.668;2023-05-02T12:23:10;15.20;;;10.30;;
4023;SDS011;2026;51.002;13.668;2023-05-02T12:28:15;14.83;;;9.50;;
4023;SDS011;2026;51.002;13.668;2023-05-02T12:33:19;13.13;;;9.93;;
4023;SDS011;2026;51.002;13.668;2023-05-02T12:38:22;12.43;;;10.37;;
4023;SDS011;2026;51.002;13.668;2023-05-02T12:43:27;11.10;;;9.20;;
4023;SDS011;2026;51.002;13.668;2023-05-02T12:48:44;12.07;;;10.03;;
4023;SDS011;2026;51.002;13.668;2023-05-02T12:53:47;12.10;;;10.10;;
4023;SDS011;2026;51.002;13.668;2023-05-02T12:58:52;15.43;;;12.30;;
4023;SDS011;2026;51.002;13.668;2023-05-02T13:03:55;15.10;;;12.53;;
4023;SDS011;2026;51.002;13.668;2023-05-02T13:08:58;17.77;;;12.90;;
4023;SDS011;2026;51.002;13.668;2023-05-02T13:14:02;19.87;;;12.40;;
4023;SDS011;2026;51.002;13.668;2023-05-02T13:19:06;14.13;;;12.13;;
4023;SDS011;2026;51.002;13.668;2023-05-02T13:24:09;11.70;;;10.40;;
4023;SDS011;2026;51.002;13.668;2023-05-02T13:29:13;16.70;;;10.90;;
4023;SDS011;2026;51.002;13.668;2023-05-02T13:34:16;13.00;;;10.80;;
4023;SDS011;2026;51.002;13.668;2023-05-02T13:39:19;10.90;;;9.57;;
4023;SDS011;2026;51.002;13.668;2023-05-02T13:44:23;12.80;;;10.03;;
4023;SDS011;2026;51.002;13.668;2023-05-02T13:49:26;12.60;;;10.00;;
4023;SDS011;2026;51.002;13.668;2023-05-02T13:54:29;14.57;;;9.90;;
4023;SDS011;2026;51.002;13.668;2023-05-02T13:59:34;14.23;;;11.30;;
4023;SDS011;2026;51.002;13.668;2023-05-02T14:04:37;13.43;;;10.20;;
4023;SDS011;2026;51.002;13.668;2023-05-02T14:09:39;16.53;;;11.53;;
4023;SDS011;2026;51.002;13.668;2023-05-02T14:14:44;12.10;;;10.80;;
4023;SDS011;2026;51.002;13.668;2023-05-02T14:19:47;17.17;;;11.63;;
4023;SDS011;2026;51.002;13.668;2023-05-02T14:24:50;15.67;;;11.47;;
4023;SDS011;2026;51.002;13.668;2023-05-02T14:29:54;15.53;;;10.47;;
4023;SDS011;2026;51.002;13.668;2023-05-02T14:34:57;12.90;;;9.23;;
4023;SDS011;2026;51.002;13.668;2023-05-02T14:40:00;13.00;;;10.00;;
4023;SDS011;2026;51.002;13.668;2023-05-02T14:45:05;17.97;;;11.60;;
4023;SDS011;2026;51.002;13.668;2023-05-02T14:50:09;17.83;;;13.00;;
4023;SDS011;2026;51.002;13.668;2023-05-02T14:55:12;12.43;;;9.00;;
4023;SDS011;2026;51.002;13.668;2023-05-02T15:00:17;14.10;;;8.27;;
4023;SDS011;2026;51.002;13.668;2023-05-02T15:05:21;11.87;;;7.50;;
4023;SDS011;2026;51.002;13.668;2023-05-02T15:10:24;14.50;;;8.70;;
4023;SDS011;2026;51.002;13.668;2023-05-02T15:15:28;12.20;;;8.00;;
4023;SDS011;2026;51.002;13.668;2023-05-02T15:20:31;13.00;;;8.10;;
4023;SDS011;2026;51.002;13.668;2023-05-02T15:25:34;12.10;;;8.70;;
4023;SDS011;2026;51.002;13.668;2023-05-02T15:30:39;12.73;;;7.70;;
4023;SDS011;2026;51.002;13.668;2023-05-02T15:35:46;9.20;;;7.30;;
4023;SDS011;2026;51.002;13.668;2023-05-02T15:40:54;11.80;;;7.13;;
4023;SDS011;2026;51.002;13.668;2023-05-02T15:45:59;8.67;;;6.83;;
4023;SDS011;2026;51.002;13.668;2023-05-02T15:51:02;9.63;;;6.57;;
4023;SDS011;2026;51.002;13.668;2023-05-02T15:56:07;7.47;;;5.50;;
4023;SDS011;2026;51.002;13.668;2023-05-02T16:01:11;7.47;;;5.37;;
4023;SDS011;2026;51.002;13.668;2023-05-02T16:06:14;7.20;;;5.60;;
4023;SDS011;2026;51.002;13.668;2023-05-02T16:11:17;8.17;;;5.40;;
4023;SDS011;2026;51.002;13.668;2023-05-02T16:16:22;8.63;;;6.17;;
4023;SDS011;2026;51.002;13.668;2023-05-02T16:21:26;8.73;;;6.60;;
4023;SDS011;2026;51.002;13.668;2023-05-02T16:26:41;9.33;;;6.17;;
4023;SDS011;2026;51.002;13.668;2023-05-02T16:31:45;10.70;;;6.33;;
4023;SDS011;2026;51.002;13.668;2023-05-02T16:36:48;9.93;;;5.20;;
4023;SDS011;2026;51.002;13.668;2023-05-02T16:41:53;16.57;;;6.50;;
4023;SDS011;2026;51.002;13.668;2023-05-02T16:46:56;9.37;;;5.30;;
4023;SDS011;2026;51.002;13.668;2023-05-02T16:51:59;10.67;;;5.40;;
4023;SDS011;2026;51.002;13.668;2023-05-02T16:57:03;11.20;;;5.60;;
4023;SDS011;2026;51.002;13.668;2023-05-02T17:02:06;11.63;;;6.00;;
4023;SDS011;2026;51.002;13.668;2023-05-02T17:07:09;7.50;;;6.00;;
4023;SDS011;2026;51.002;13.668;2023-05-02T17:12:14;15.43;;;6.10;;
4023;SDS011;2026;51.002;13.668;2023-05-02T17:17:22;9.10;;;5.43;;
4023;SDS011;2026;51.002;13.668;2023-05-02T17:22:25;15.63;;;7.07;;
4023;SDS011;2026;51.002;13.668;2023-05-02T17:27:29;10.53;;;6.07;;
4023;SDS011;2026;51.002;13.668;2023-05-02T17:32:32;9.43;;;5.13;;
4023;SDS011;2026;51.002;13.668;2023-05-02T17:37:38;12.90;;;5.80;;
4023;SDS011;2026;51.002;13.668;2023-05-02T17:42:42;12.23;;;5.97;;
4023;SDS011;2026;51.002;13.668;2023-05-02T17:47:46;8.77;;;5.30;;
4023;SDS011;2026;51.002;13.668;2023-05-02T17:52:48;6.70;;;4.83;;
4023;SDS011;2026;51.002;13.668;2023-05-02T17:57:53;10.83;;;4.70;;
4023;SDS011;2026;51.002;13.668;2023-05-02T18:02:58;7.87;;;5.10;;
4023;SDS011;2026;51.002;13.668;2023-05-02T18:08:02;6.70;;;5.30;;
4023;SDS011;2026;51.002;13.668;2023-05-02T18:13:07;8.93;;;4.50;;
4023;SDS011;2026;51.002;13.668;2023-05-02T18:18:10;8.70;;;4.60;;
4023;SDS011;2026;51.002;13.668;2023-05-02T18:23:13;6.87;;;4.50;;
4023;SDS011;2026;51.002;13.668;2023-05-02T18:28:18;5.17;;;4.67;;
4023;SDS011;2026;51.002;13.668;2023-05-02T18:33:21;9.70;;;4.90;;
4023;SDS011;2026;51.002;13.668;2023-05-02T18:38:24;4.63;;;3.70;;
4023;SDS011;2026;51.002;13.668;2023-05-02T18:43:29;11.70;;;4.57;;
4023;SDS011;2026;51.002;13.668;2023-05-02T18:48:33;7.70;;;5.10;;
4023;SDS011;2026;51.002;13.668;2023-05-02T18:53:37;9.20;;;4.00;;
4023;SDS011;2026;51.002;13.668;2023-05-02T18:58:41;8.30;;;4.30;;
4023;SDS011;2026;51.002;13.668;2023-05-02T19:03:44;10.87;;;4.43;;
4023;SDS011;2026;51.002;13.668;2023-05-02T19:08:47;6.30;;;3.73;;
4023;SDS011;2026;51.002;13.668;2023-05-02T19:13:52;7.10;;;4.60;;
4023;SDS011;2026;51.002;13.668;2023-05-02T19:18:57;8.47;;;4.40;;
4023;SDS011;2026;51.002;13.668;2023-05-02T19:24:00;7.70;;;4.00;;
4023;SDS011;2026;51.002;13.668;2023-05-02T19:29:04;7.07;;;4.00;;
4023;SDS011;2026;51.002;13.668;2023-05-02T19:34:07;8.23;;;4.40;;
4023;SDS011;2026;51.002;13.668;2023-05-02T19:39:10;4.97;;;3.70;;
4023;SDS011;2026;51.002;13.668;2023-05-02T19:44:14;9.83;;;4.30;;
4023;SDS011;2026;51.002;13.668;2023-05-02T19:49:18;8.17;;;4.30;;
4023;SDS011;2026;51.002;13.668;2023-05-02T19:54:21;6.27;;;3.90;;
4023;SDS011;2026;51.002;13.668;2023-05-02T19:59:25;4.20;;;3.47;;
4023;SDS011;2026;51.002;13.668;2023-05-02T20:04:28;7.77;;;4.10;;
4023;SDS011;2026;51.002;13.668;2023-05-02T20:09:31;5.53;;;3.83;;
4023;SDS011;2026;51.002;13.668;2023-05-02T20:14:35;6.93;;;3.27;;
4023;SDS011;2026;51.002;13.668;2023-05-02T20:19:38;5.80;;;3.73;;
4023;SDS011;2026;51.002;13.668;2023-05-02T20:24:41;6.83;;;3.77;;
4023;SDS011;2026;51.002;13.668;2023-05-02T20:29:45;7.80;;;4.60;;
4023;SDS011;2026;51.002;13.668;2023-05-02T20:34:48;6.67;;;3.90;;
4023;SDS011;2026;51.002;13.668;2023-05-02T20:39:52;5.70;;;3.77;;
4023;SDS011;2026;51.002;13.668;2023-05-02T20:44:56;7.93;;;4.27;;
4023;SDS011;2026;51.002;13.668;2023-05-02T20:50:00;8.13;;;4.20;;
4023;SDS011;2026;51.002;13.668;2023-05-02T20:55:04;8.33;;;4.20;;
4023;SDS011;2026;51.002;13.668;2023-05-02T21:00:09;5.20;;;4.07;;
4023;SDS011;2026;51.002;13.668;2023-05-02T21:05:14;8.27;;;4.20;;
4023;SDS011;2026;51.002;13.668;2023-05-02T21:10:17;8.50;;;4.70;;
4023;SDS011;2026;51.002;13.668;2023-05-02T21:15:21;6.57;;;4.37;;
4023;SDS011;2026;51.002;13.668;2023-05-02T21:20:24;9.03;;;4.97;;
4023;SDS011;2026;51.002;13.668;2023-05-02T21:25:28;6.80;;;4.40;;
4023;SDS011;2026;51.002;13.668;2023-05-02T21:30:32;7.93;;;4.90;;
4023;SDS011;2026;51.002;13.668;2023-05-02T21:35:36;9.30;;;5.00;;
4023;SDS011;2026;51.002;13.668;2023-05-02T21:40:39;7.77;;;4.33;;
4023;SDS011;2026;51.002;13.668;2023-05-02T21:45:43;8.03;;;4.50;;
4023;SDS011;2026;51.002;13.668;2023-05-02T21:50:47;7.67;;;4.73;;
4023;SDS011;2026;51.002;13.668;2023-05-02T21:55:50;8.50;;;4.87;;
4023;SDS011;2026;51.002;13.668;2023-05-02T22:00:55;8.37;;;4.63;;
4023;SDS011;2026;51.002;13.668;2023-05-02T22:05:58;7.33;;;4.87;;
4023;SDS011;2026;51.002;13.668;2023-05-02T22:11:06;9.93;;;4.73;;
4023;SDS011;2026;51.002;13.668;2023-05-02T22:16:11;6.57;;;4.40;;
4023;SDS011;2026;51.002;13.668;2023-05-02T22:21:14;5.53;;;4.60;;
4023;SDS011;2026;51.002;13.668;2023-05-02T22:26:20;7.40;;;4.83;;
4023;SDS011;2026;51.002;13.668;2023-05-02T22:31:24;5.93;;;4.93;;
4023;SDS011;2026;51.002;13.668;2023-05-02T22:36:27;8.20;;;4.73;;
4023;SDS011;2026;51.002;13.668;2023-05-02T22:41:31;6.70;;;4.30;;
4023;SDS011;2026;51.002;13.668;2023-05-02T22:46:36;7.97;;;5.00;;
4023;SDS011;2026;51.002;13.668;2023-05-02T22:51:39;6.60;;;4.73;;
4023;SDS011;2026;51.002;13.668;2023-05-02T22:56:43;7.13;;;5.13;;
4023;SDS011;2026;51.002;13.668;2023-05-02T23:01:47;6.10;;;4.93;;
4023;SDS011;2026;51.002;13.668;2023-05-02T23:06:51;6.90;;;4.60;;
4023;SDS011;2026;51.002;13.668;2023-05-02T23:11:54;6.93;;;4.50;;
4023;SDS011;2026;51.002;13.668;2023-05-02T23:16:59;9.17;;;5.00;;
4023;SDS011;2026;51.002;13.668;2023-05-02T23:22:02;6.90;;;4.50;;
4023;SDS011;2026;51.002;13.668;2023-05-02T23:27:05;9.43;;;5.53;;
4023;SDS011;2026;51.002;13.668;2023-05-02T23:32:10;5.93;;;4.60;;
4023;SDS011;2026;51.002;13.668;2023-05-02T23:37:13;10.73;;;5.10;;
4023;SDS011;2026;51.002;13.668;2023-05-02T23:42:16;11.40;;;5.10;;
4023;SDS011;2026;51.002;13.668;2023-05-02T23:47:20;10.30;;;5.73;;
4023;SDS011;2026;51.002;13.668;2023-05-02T23:52:25;11.10;;;6.50;;
4023;SDS011;2026;51.002;13.668;2023-05-02T23:57:28;9.33;;;5.80;;
